sensor_id;sensor_type;location;lat;lon;timestamp;temperature;humidity
16674;DHT22;8450;52.654;10.326;2023-03-02T07:10:38;-0.30;99.90
16674;DHT22;8450;52.654;10.326;2023-03-02T07:13:03;-0.30;99.90
16674;DHT22;8450;52.654;10.326;2023-03-02T07:15:29;-0.40;99.90
16674;DHT22;8450;52.654;10.326;2023-03-02T07:17:54;-0.30;99.90
16674;DHT22;8450;52.654;10.326;2023-03-02T07:20:20;-0.30;99.90
16674;DHT22;8450;52.654;10.326;2023-03-02T07:22:45;-0.30;99.90
16674;DHT22;8450;52.654;10.326;2023-03-02T07:25:11;-0.30;99.90
16674;DHT22;8450;52.654;10.326;2023-03-02T07:27:37;-0.30;99.90
16674;DHT22;8450;52.654;10.326;2023-03-02T07:30:04;-0.30;99.90
16674;DHT22;8450;52.654;10.326;2023-03-02T07:32:30;-0.30;99.90
16674;DHT22;8450;52.654;10.326;2023-03-02T07:34:56;-0.30;99.90
16674;DHT22;8450;52.654;10.326;2023-03-02T07:37:21;-0.30;99.90
16674;DHT22;8450;52.654;10.326;2023-03-02T07:39:47;-0.30;99.90
16674;DHT22;8450;52.654;10.326;2023-03-02T07:42:13;-0.20;99.90
16674;DHT22;8450;52.654;10.326;2023-03-02T07:44:41;-0.20;99.90
16674;DHT22;8450;52.654;10.326;2023-03-02T07:47:07;-0.20;99.90
16674;DHT22;8450;52.654;10.326;2023-03-02T07:49:33;-0.20;99.90
16674;DHT22;8450;52.654;10.326;2023-03-02T07:52:00;-0.20;99.90
16674;DHT22;8450;52.654;10.326;2023-03-02T07:54:26;-0.20;99.90
16674;DHT22;8450;52.654;10.326;2023-03-02T07:56:57;-0.10;99.90
16674;DHT22;8450;52.654;10.326;2023-03-02T07:59:23;-0.10;99.90
16674;DHT22;8450;52.654;10.326;2023-03-02T08:01:49;-0.10;99.90
16674;DHT22;8450;52.654;10.326;2023-03-02T08:04:14;-0.10;99.90
16674;DHT22;8450;52.654;10.326;2023-03-02T08:06:40;-0.10;99.90
16674;DHT22;8450;52.654;10.326;2023-03-02T08:09:05;-0.10;99.90
16674;DHT22;8450;52.654;10.326;2023-03-02T08:11:31;0.00;99.90
16674;DHT22;8450;52.654;10.326;2023-03-02T08:14:01;0.00;99.90
16674;DHT22;8450;52.654;10.326;2023-03-02T08:16:27;0.00;99.90
16674;DHT22;8450;52.654;10.326;2023-03-02T08:18:52;0.00;99.90
16674;DHT22;8450;52.654;10.326;2023-03-02T08:21:20;0.00;99.90
16674;DHT22;8450;52.654;10.326;2023-03-02T08:23:47;0.10;99.90
16674;DHT22;8450;52.654;10.326;2023-03-02T08:26:13;0.10;99.90
16674;DHT22;8450;52.654;10.326;2023-03-02T08:28:39;0.10;99.90
16674;DHT22;8450;52.654;10.326;2023-03-02T08:31:07;0.10;99.90
16674;DHT22;8450;52.654;10.326;2023-03-02T08:33:33;0.20;99.90
16674;DHT22;8450;52.654;10.326;2023-03-02T08:36:07;0.20;99.90
16674;DHT22;8450;52.654;10.326;2023-03-02T08:38:34;0.20;99.90
16674;DHT22;8450;52.654;10.326;2023-03-02T08:41:08;0.20;99.90
16674;DHT22;8450;52.654;10.326;2023-03-02T08:43:34;0.20;99.90
16674;DHT22;8450;52.654;10.326;2023-03-02T08:46:00;0.20;99.90
16674;DHT22;8450;52.654;10.326;2023-03-02T08:48:27;0.30;99.90
16674;DHT22;8450;52.654;10.326;2023-03-02T08:51:01;0.30;99.90
16674;DHT22;8450;52.654;10.326;2023-03-02T08:53:29;0.30;99.90
16674;DHT22;8450;52.654;10.326;2023-03-02T08:55:55;0.40;99.90
16674;DHT22;8450;52.654;10.326;2023-03-02T08:58:21;0.40;99.90
16674;DHT22;8450;52.654;10.326;2023-03-02T09:00:47;0.40;99.90
16674;DHT22;8450;52.654;10.326;2023-03-02T09:03:13;0.50;99.90
16674;DHT22;8450;52.654;10.326;2023-03-02T09:05:38;0.50;99.90
16674;DHT22;8450;52.654;10.326;2023-03-02T09:08:04;0.50;99.90
16674;DHT22;8450;52.654;10.326;2023-03-02T09:10:30;0.60;99.90
16674;DHT22;8450;52.654;10.326;2023-03-02T09:12:56;0.60;99.90
16674;DHT22;8450;52.654;10.326;2023-03-02T09:15:21;0.60;99.90
16674;DHT22;8450;52.654;10.326;2023-03-02T09:17:47;0.60;99.90
16674;DHT22;8450;52.654;10.326;2023-03-02T09:20:13;0.60;99.90
16674;DHT22;8450;52.654;10.326;2023-03-02T09:22:39;0.70;99.90
16674;DHT22;8450;52.654;10.326;2023-03-02T09:25:05;0.70;99.90
16674;DHT22;8450;52.654;10.326;2023-03-02T09:27:30;0.80;99.90
16674;DHT22;8450;52.654;10.326;2023-03-02T09:29:56;0.80;99.90
16674;DHT22;8450;52.654;10.326;2023-03-02T09:32:22;0.80;99.90
16674;DHT22;8450;52.654;10.326;2023-03-02T09:34:47;0.90;99.90
16674;DHT22;8450;52.654;10.326;2023-03-02T09:37:13;0.90;99.90
16674;DHT22;8450;52.654;10.326;2023-03-02T09:39:38;1.00;99.90
16674;DHT22;8450;52.654;10.326;2023-03-02T09:42:32;1.00;99.90
16674;DHT22;8450;52.654;10.326;2023-03-02T09:45:22;1.00;99.90
16674;DHT22;8450;52.654;10.326;2023-03-02T09:47:59;1.10;99.90
16674;DHT22;8450;52.654;10.326;2023-03-02T09:55:35;1.20;99.90
16674;DHT22;8450;52.654;10.326;2023-03-02T09:58:14;1.30;99.90
16674;DHT22;8450;52.654;10.326;2023-03-02T10:00:41;1.30;99.90
16674;DHT22;8450;52.654;10.326;2023-03-02T10:03:21;1.40;99.90
16674;DHT22;8450;52.654;10.326;2023-03-02T10:05:48;1.40;99.90
16674;DHT22;8450;52.654;10.326;2023-03-02T10:08:18;1.40;99.90
16674;DHT22;8450;52.654;10.326;2023-03-02T10:13:34;1.50;99.90
16674;DHT22;8450;52.654;10.326;2023-03-02T10:18:43;1.60;99.90
16674;DHT22;8450;52.654;10.326;2023-03-02T10:24:15;1.60;99.90
16674;DHT22;8450;52.654;10.326;2023-03-02T10:26:49;1.70;99.90
16674;DHT22;8450;52.654;10.326;2023-03-02T10:29:39;1.70;99.90
16674;DHT22;8450;52.654;10.326;2023-03-02T10:32:24;1.70;99.90
16674;DHT22;8450;52.654;10.326;2023-03-02T10:34:53;1.80;99.90
16674;DHT22;8450;52.654;10.326;2023-03-02T10:37:21;1.80;99.90
16674;DHT22;8450;52.654;10.326;2023-03-02T10:39:50;1.90;99.90
16674;DHT22;8450;52.654;10.326;2023-03-02T10:42:21;1.90;99.90
16674;DHT22;8450;52.654;10.326;2023-03-02T10:44:51;1.90;99.90
16674;DHT22;8450;52.654;10.326;2023-03-02T10:47:24;2.00;99.90
16674;DHT22;8450;52.654;10.326;2023-03-02T10:49:52;2.00;99.90
16674;DHT22;8450;52.654;10.326;2023-03-02T10:52:24;2.10;99.90
16674;DHT22;8450;52.654;10.326;2023-03-02T10:55:04;2.10;99.90
16674;DHT22;8450;52.654;10.326;2023-03-02T10:57:41;2.20;99.90
16674;DHT22;8450;52.654;10.326;2023-03-02T11:00:20;2.30;99.90
16674;DHT22;8450;52.654;10.326;2023-03-02T11:03:00;2.30;99.90
16674;DHT22;8450;52.654;10.326;2023-03-02T11:08:00;2.40;99.90
16674;DHT22;8450;52.654;10.326;2023-03-02T11:10:37;2.40;99.90
16674;DHT22;8450;52.654;10.326;2023-03-02T11:13:28;2.50;99.90
16674;DHT22;8450;52.654;10.326;2023-03-02T11:15:56;2.60;99.90
16674;DHT22;8450;52.654;10.326;2023-03-02T11:18:31;2.60;99.90
16674;DHT22;8450;52.654;10.326;2023-03-02T11:21:02;2.60;99.90
16674;DHT22;8450;52.654;10.326;2023-03-02T11:23:46;2.70;99.90
16674;DHT22;8450;52.654;10.326;2023-03-02T11:28:58;2.80;99.90
16674;DHT22;8450;52.654;10.326;2023-03-02T11:31:42;2.80;99.90
16674;DHT22;8450;52.654;10.326;2023-03-02T11:37:33;2.90;99.90
16674;DHT22;8450;52.654;10.326;2023-03-02T11:42:43;3.00;99.90
16674;DHT22;8450;52.654;10.326;2023-03-02T11:47:38;3.10;99.90
16674;DHT22;8450;52.654;10.326;2023-03-02T11:50:06;3.10;99.90
16674;DHT22;8450;52.654;10.326;2023-03-02T11:52:38;3.10;99.90
16674;DHT22;8450;52.654;10.326;2023-03-02T11:57:56;3.20;99.90
16674;DHT22;8450;52.654;10.326;2023-03-02T12:00:36;3.20;99.90
16674;DHT22;8450;52.654;10.326;2023-03-02T12:03:05;3.30;99.90
16674;DHT22;8450;52.654;10.326;2023-03-02T12:05:34;3.30;99.90
16674;DHT22;8450;52.654;10.326;2023-03-02T12:08:06;3.30;99.90
16674;DHT22;8450;52.654;10.326;2023-03-02T12:13:16;3.30;99.90
16674;DHT22;8450;52.654;10.326;2023-03-02T12:15:49;3.40;99.90
16674;DHT22;8450;52.654;10.326;2023-03-02T12:18:27;3.40;99.90
16674;DHT22;8450;52.654;10.326;2023-03-02T12:23:23;3.50;99.90
16674;DHT22;8450;52.654;10.326;2023-03-02T12:31:24;3.50;99.90
16674;DHT22;8450;52.654;10.326;2023-03-02T12:33:51;3.50;99.90
16674;DHT22;8450;52.654;10.326;2023-03-02T12:36:28;3.50;99.90
16674;DHT22;8450;52.654;10.326;2023-03-02T12:42:33;3.50;99.90
16674;DHT22;8450;52.654;10.326;2023-03-02T12:47:13;3.60;99.90
16674;DHT22;8450;52.654;10.326;2023-03-02T12:49:50;3.60;99.90
16674;DHT22;8450;52.654;10.326;2023-03-02T12:54:44;3.60;99.90
16674;DHT22;8450;52.654;10.326;2023-03-02T12:57:15;3.60;99.90
16674;DHT22;8450;52.654;10.326;2023-03-02T12:59:42;3.60;99.90
16674;DHT22;8450;52.654;10.326;2023-03-02T13:02:23;3.60;99.90
16674;DHT22;8450;52.654;10.326;2023-03-02T13:07:34;3.70;99.90
16674;DHT22;8450;52.654;10.326;2023-03-02T13:10:05;3.70;99.90
16674;DHT22;8450;52.654;10.326;2023-03-02T13:12:33;3.70;99.90
16674;DHT22;8450;52.654;10.326;2023-03-02T13:15:00;3.80;99.90
16674;DHT22;8450;52.654;10.326;2023-03-02T13:17:29;3.80;99.90
16674;DHT22;8450;52.654;10.326;2023-03-02T13:19:57;3.80;99.90
16674;DHT22;8450;52.654;10.326;2023-03-02T13:22:24;3.80;99.90
16674;DHT22;8450;52.654;10.326;2023-03-02T13:25:01;3.80;99.90
16674;DHT22;8450;52.654;10.326;2023-03-02T13:27:28;3.80;99.90
16674;DHT22;8450;52.654;10.326;2023-03-02T13:29:54;3.80;99.90
16674;DHT22;8450;52.654;10.326;2023-03-02T13:32:25;3.80;99.90
16674;DHT22;8450;52.654;10.326;2023-03-02T13:34:59;3.80;99.90
16674;DHT22;8450;52.654;10.326;2023-03-02T13:37:40;3.80;99.90
16674;DHT22;8450;52.654;10.326;2023-03-02T13:42:52;3.80;99.90
16674;DHT22;8450;52.654;10.326;2023-03-02T13:45:29;3.80;99.90
16674;DHT22;8450;52.654;10.326;2023-03-02T13:47:57;3.80;99.90
16674;DHT22;8450;52.654;10.326;2023-03-02T13:50:30;3.80;99.90
16674;DHT22;8450;52.654;10.326;2023-03-02T13:53:00;3.90;99.90
16674;DHT22;8450;52.654;10.326;2023-03-02T13:55:28;3.80;99.90
16674;DHT22;8450;52.654;10.326;2023-03-02T13:57:54;3.90;99.90
16674;DHT22;8450;52.654;10.326;2023-03-02T14:02:50;3.90;99.90
16674;DHT22;8450;52.654;10.326;2023-03-02T14:05:20;3.90;99.90
16674;DHT22;8450;52.654;10.326;2023-03-02T14:07:47;3.90;99.90
16674;DHT22;8450;52.654;10.326;2023-03-02T14:10:15;3.90;99.90
16674;DHT22;8450;52.654;10.326;2023-03-02T14:12:47;4.00;99.90
16674;DHT22;8450;52.654;10.326;2023-03-02T14:15:16;3.90;99.90
16674;DHT22;8450;52.654;10.326;2023-03-02T14:17:42;4.00;99.90
16674;DHT22;8450;52.654;10.326;2023-03-02T14:20:17;4.00;99.90
16674;DHT22;8450;52.654;10.326;2023-03-02T14:22:44;4.00;99.90
16674;DHT22;8450;52.654;10.326;2023-03-02T14:25:10;4.00;99.90
16674;DHT22;8450;52.654;10.326;2023-03-02T14:27:37;4.00;99.90
16674;DHT22;8450;52.654;10.326;2023-03-02T14:30:12;4.00;99.90
16674;DHT22;8450;52.654;10.326;2023-03-02T14:32:38;4.10;99.90
16674;DHT22;8450;52.654;10.326;2023-03-02T14:35:04;4.00;99.90
16674;DHT22;8450;52.654;10.326;2023-03-02T14:37:30;4.00;99.90
16674;DHT22;8450;52.654;10.326;2023-03-02T14:39:56;4.10;99.90
16674;DHT22;8450;52.654;10.326;2023-03-02T14:42:22;4.10;99.90
16674;DHT22;8450;52.654;10.326;2023-03-02T14:44:49;4.10;99.90
16674;DHT22;8450;52.654;10.326;2023-03-02T14:47:15;4.10;99.90
16674;DHT22;8450;52.654;10.326;2023-03-02T14:49:44;4.00;99.90
16674;DHT22;8450;52.654;10.326;2023-03-02T14:52:22;4.10;99.90
16674;DHT22;8450;52.654;10.326;2023-03-02T14:54:53;4.10;99.90
16674;DHT22;8450;52.654;10.326;2023-03-02T14:57:22;4.10;99.90
16674;DHT22;8450;52.654;10.326;2023-03-02T14:59:50;4.10;99.90
16674;DHT22;8450;52.654;10.326;2023-03-02T15:02:16;4.10;99.90
16674;DHT22;8450;52.654;10.326;2023-03-02T15:04:42;4.10;99.90
16674;DHT22;8450;52.654;10.326;2023-03-02T15:07:11;4.10;99.90
16674;DHT22;8450;52.654;10.326;2023-03-02T15:09:38;4.10;99.90
16674;DHT22;8450;52.654;10.326;2023-03-02T15:12:04;4.10;99.90
16674;DHT22;8450;52.654;10.326;2023-03-02T15:14:30;4.00;99.90
16674;DHT22;8450;52.654;10.326;2023-03-02T15:16:55;4.10;99.90
16674;DHT22;8450;52.654;10.326;2023-03-02T15:19:21;4.10;99.90
16674;DHT22;8450;52.654;10.326;2023-03-02T15:21:46;4.10;99.90
16674;DHT22;8450;52.654;10.326;2023-03-02T15:24:12;4.10;99.90
16674;DHT22;8450;52.654;10.326;2023-03-02T15:26:38;4.00;99.90
16674;DHT22;8450;52.654;10.326;2023-03-02T15:29:05;4.00;99.90
16674;DHT22;8450;52.654;10.326;2023-03-02T15:31:32;4.00;99.90
16674;DHT22;8450;52.654;10.326;2023-03-02T15:33:58;4.00;99.90
16674;DHT22;8450;52.654;10.326;2023-03-02T15:36:23;4.00;99.90
16674;DHT22;8450;52.654;10.326;2023-03-02T15:38:51;4.00;99.90
16674;DHT22;8450;52.654;10.326;2023-03-02T15:41:17;4.00;99.90
16674;DHT22;8450;52.654;10.326;2023-03-02T15:43:43;4.00;99.90
16674;DHT22;8450;52.654;10.326;2023-03-02T15:46:10;4.00;99.90
16674;DHT22;8450;52.654;10.326;2023-03-02T15:48:36;4.00;99.90
16674;DHT22;8450;52.654;10.326;2023-03-02T15:51:03;4.00;99.90
16674;DHT22;8450;52.654;10.326;2023-03-02T15:53:30;4.00;99.90
16674;DHT22;8450;52.654;10.326;2023-03-02T15:55:57;4.00;99.90
16674;DHT22;8450;52.654;10.326;2023-03-02T15:58:22;4.00;99.90
16674;DHT22;8450;52.654;10.326;2023-03-02T16:00:49;3.90;99.90
16674;DHT22;8450;52.654;10.326;2023-03-02T16:03:15;3.90;99.90
16674;DHT22;8450;52.654;10.326;2023-03-02T16:05:41;3.80;99.90
16674;DHT22;8450;52.654;10.326;2023-03-02T16:08:07;3.90;99.90
